sensor_id;sensor_type;location;lat;lon;timestamp;P1;durP1;ratioP1;P2;durP2;ratioP2
38085;SDS011;23896;50.678;10.924;2023-04-24T00:01:15;2.88;;;1.75;;
38085;SDS011;23896;50.678;10.924;2023-04-24T00:03:42;1.15;;;1.15;;
38085;SDS011;23896;50.678;10.924;2023-04-24T00:06:08;1.20;;;1.00;;
38085;SDS011;23896;50.678;10.924;2023-04-24T00:08:35;0.90;;;0.90;;
38085;SDS011;23896;50.678;10.924;2023-04-24T00:11:01;1.17;;;1.08;;
38085;SDS011;23896;50.678;10.924;2023-04-24T00:13:28;1.85;;;1.10;;
38085;SDS011;23896;50.678;10.924;2023-04-24T00:15:55;1.27;;;1.17;;
38085;SDS011;23896;50.678;10.924;2023-04-24T00:18:21;1.05;;;0.95;;
38085;SDS011;23896;50.678;10.924;2023-04-24T00:20:47;0.95;;;0.90;;
38085;SDS011;23896;50.678;10.924;2023-04-24T00:23:13;1.17;;;1.00;;
38085;SDS011;23896;50.678;10.924;2023-04-24T00:25:40;0.93;;;0.70;;
38085;SDS011;23896;50.678;10.924;2023-04-24T00:28:06;1.98;;;1.00;;
38085;SDS011;23896;50.678;10.924;2023-04-24T00:30:32;1.15;;;0.90;;
38085;SDS011;23896;50.678;10.924;2023-04-24T00:32:59;1.55;;;0.93;;
38085;SDS011;23896;50.678;10.924;2023-04-24T00:35:25;1.63;;;1.10;;
38085;SDS011;23896;50.678;10.924;2023-04-24T00:37:51;1.20;;;0.90;;
38085;SDS011;23896;50.678;10.924;2023-04-24T00:40:17;1.00;;;0.90;;
38085;SDS011;23896;50.678;10.924;2023-04-24T00:43:26;1.98;;;1.40;;
38085;SDS011;23896;50.678;10.924;2023-04-24T00:46:17;1.20;;;0.77;;
38085;SDS011;23896;50.678;10.924;2023-04-24T00:48:44;1.33;;;0.90;;
38085;SDS011;23896;50.678;10.924;2023-04-24T00:51:11;0.85;;;0.85;;
38085;SDS011;23896;50.678;10.924;2023-04-24T00:53:37;1.10;;;1.00;;
38085;SDS011;23896;50.678;10.924;2023-04-24T00:56:03;1.10;;;1.10;;
38085;SDS011;23896;50.678;10.924;2023-04-24T00:58:32;0.88;;;0.88;;
38085;SDS011;23896;50.678;10.924;2023-04-24T01:00:59;1.08;;;1.00;;
38085;SDS011;23896;50.678;10.924;2023-04-24T01:03:26;1.95;;;1.05;;
38085;SDS011;23896;50.678;10.924;2023-04-24T01:05:55;1.35;;;1.23;;
38085;SDS011;23896;50.678;10.924;2023-04-24T01:08:23;1.10;;;1.00;;
38085;SDS011;23896;50.678;10.924;2023-04-24T01:10:50;2.17;;;1.30;;
38085;SDS011;23896;50.678;10.924;2023-04-24T01:13:17;2.45;;;1.20;;
38085;SDS011;23896;50.678;10.924;2023-04-24T01:15:45;3.33;;;1.20;;
38085;SDS011;23896;50.678;10.924;2023-04-24T01:18:12;4.05;;;1.50;;
38085;SDS011;23896;50.678;10.924;2023-04-24T01:20:40;1.38;;;1.20;;
38085;SDS011;23896;50.678;10.924;2023-04-24T01:23:06;1.33;;;1.17;;
38085;SDS011;23896;50.678;10.924;2023-04-24T01:25:35;1.30;;;1.20;;
38085;SDS011;23896;50.678;10.924;2023-04-24T01:28:03;1.65;;;1.55;;
38085;SDS011;23896;50.678;10.924;2023-04-24T01:30:29;3.30;;;1.60;;
38085;SDS011;23896;50.678;10.924;2023-04-24T01:32:56;1.50;;;1.40;;
38085;SDS011;23896;50.678;10.924;2023-04-24T01:35:24;1.48;;;1.38;;
38085;SDS011;23896;50.678;10.924;2023-04-24T01:37:54;2.88;;;1.38;;
38085;SDS011;23896;50.678;10.924;2023-04-24T01:40:20;2.85;;;1.63;;
38085;SDS011;23896;50.678;10.924;2023-04-24T01:42:55;2.25;;;1.48;;
38085;SDS011;23896;50.678;10.924;2023-04-24T01:45:24;1.90;;;1.55;;
38085;SDS011;23896;50.678;10.924;2023-04-24T01:47:56;2.13;;;1.30;;
38085;SDS011;23896;50.678;10.924;2023-04-24T01:50:41;1.42;;;1.33;;
38085;SDS011;23896;50.678;10.924;2023-04-24T01:53:27;3.10;;;1.83;;
38085;SDS011;23896;50.678;10.924;2023-04-24T01:55:53;2.45;;;1.50;;
38085;SDS011;23896;50.678;10.924;2023-04-24T01:58:20;3.13;;;1.40;;
38085;SDS011;23896;50.678;10.924;2023-04-24T02:00:47;12.23;;;2.08;;
38085;SDS011;23896;50.678;10.924;2023-04-24T02:03:13;1.70;;;1.60;;
38085;SDS011;23896;50.678;10.924;2023-04-24T02:05:39;1.80;;;1.38;;
38085;SDS011;23896;50.678;10.924;2023-04-24T02:08:24;2.38;;;1.40;;
38085;SDS011;23896;50.678;10.924;2023-04-24T02:10:56;2.33;;;1.70;;
38085;SDS011;23896;50.678;10.924;2023-04-24T02:16:27;2.60;;;1.50;;
38085;SDS011;23896;50.678;10.924;2023-04-24T02:18:57;1.83;;;1.45;;
38085;SDS011;23896;50.678;10.924;2023-04-24T02:21:23;1.98;;;1.65;;
38085;SDS011;23896;50.678;10.924;2023-04-24T02:23:50;1.50;;;1.25;;
38085;SDS011;23896;50.678;10.924;2023-04-24T02:26:17;1.45;;;1.27;;
38085;SDS011;23896;50.678;10.924;2023-04-24T02:28:43;1.50;;;1.40;;
38085;SDS011;23896;50.678;10.924;2023-04-24T02:31:10;1.60;;;1.50;;
38085;SDS011;23896;50.678;10.924;2023-04-24T02:33:36;1.50;;;1.40;;
38085;SDS011;23896;50.678;10.924;2023-04-24T02:36:05;1.60;;;1.50;;
38085;SDS011;23896;50.678;10.924;2023-04-24T02:38:37;2.60;;;1.13;;
38085;SDS011;23896;50.678;10.924;2023-04-24T02:41:09;1.42;;;1.17;;
38085;SDS011;23896;50.678;10.924;2023-04-24T02:43:39;2.30;;;1.20;;
38085;SDS011;23896;50.678;10.924;2023-04-24T02:46:21;1.95;;;1.45;;
38085;SDS011;23896;50.678;10.924;2023-04-24T02:48:47;1.60;;;1.40;;
38085;SDS011;23896;50.678;10.924;2023-04-24T02:57:04;1.20;;;1.10;;
38085;SDS011;23896;50.678;10.924;2023-04-24T02:59:31;1.35;;;1.15;;
38085;SDS011;23896;50.678;10.924;2023-04-24T03:01:57;1.85;;;1.10;;
38085;SDS011;23896;50.678;10.924;2023-04-24T03:04:26;1.73;;;1.00;;
38085;SDS011;23896;50.678;10.924;2023-04-24T03:06:53;5.57;;;1.40;;
38085;SDS011;23896;50.678;10.924;2023-04-24T03:09:20;2.33;;;1.38;;
38085;SDS011;23896;50.678;10.924;2023-04-24T03:11:46;1.58;;;1.27;;
38085;SDS011;23896;50.678;10.924;2023-04-24T03:17:17;1.63;;;1.30;;
38085;SDS011;23896;50.678;10.924;2023-04-24T03:19:43;1.20;;;1.10;;
38085;SDS011;23896;50.678;10.924;2023-04-24T03:22:10;1.45;;;1.27;;
38085;SDS011;23896;50.678;10.924;2023-04-24T03:24:38;2.53;;;1.10;;
38085;SDS011;23896;50.678;10.924;2023-04-24T03:29:58;1.25;;;1.15;;
38085;SDS011;23896;50.678;10.924;2023-04-24T03:32:27;2.47;;;1.40;;
38085;SDS011;23896;50.678;10.924;2023-04-24T03:35:12;1.95;;;1.35;;
38085;SDS011;23896;50.678;10.924;2023-04-24T03:37:47;2.22;;;1.85;;
38085;SDS011;23896;50.678;10.924;2023-04-24T03:40:13;2.20;;;1.95;;
38085;SDS011;23896;50.678;10.924;2023-04-24T03:42:39;1.70;;;1.60;;
38085;SDS011;23896;50.678;10.924;2023-04-24T03:45:06;1.85;;;1.48;;
38085;SDS011;23896;50.678;10.924;2023-04-24T03:47:32;2.90;;;1.98;;
38085;SDS011;23896;50.678;10.924;2023-04-24T03:49:58;2.47;;;2.00;;
38085;SDS011;23896;50.678;10.924;2023-04-24T03:52:24;3.40;;;1.63;;
38085;SDS011;23896;50.678;10.924;2023-04-24T03:55:06;1.42;;;1.33;;
38085;SDS011;23896;50.678;10.924;2023-04-24T03:57:32;1.50;;;1.40;;
38085;SDS011;23896;50.678;10.924;2023-04-24T03:59:59;1.70;;;1.60;;
38085;SDS011;23896;50.678;10.924;2023-04-24T04:02:25;2.60;;;1.67;;
38085;SDS011;23896;50.678;10.924;2023-04-24T04:04:57;2.45;;;1.38;;
38085;SDS011;23896;50.678;10.924;2023-04-24T04:07:23;1.92;;;1.50;;
38085;SDS011;23896;50.678;10.924;2023-04-24T04:09:50;2.03;;;1.60;;
38085;SDS011;23896;50.678;10.924;2023-04-24T04:12:17;1.90;;;1.80;;
38085;SDS011;23896;50.678;10.924;2023-04-24T04:14:44;5.35;;;1.50;;
38085;SDS011;23896;50.678;10.924;2023-04-24T04:17:10;3.08;;;1.45;;
38085;SDS011;23896;50.678;10.924;2023-04-24T04:19:37;4.03;;;1.50;;
38085;SDS011;23896;50.678;10.924;2023-04-24T04:22:03;4.78;;;1.42;;
38085;SDS011;23896;50.678;10.924;2023-04-24T04:24:34;2.25;;;1.35;;
38085;SDS011;23896;50.678;10.924;2023-04-24T04:27:06;3.33;;;1.60;;
38085;SDS011;23896;50.678;10.924;2023-04-24T04:29:45;1.70;;;1.60;;
38085;SDS011;23896;50.678;10.924;2023-04-24T04:32:11;2.25;;;1.30;;
38085;SDS011;23896;50.678;10.924;2023-04-24T04:34:37;2.05;;;1.13;;
38085;SDS011;23896;50.678;10.924;2023-04-24T04:37:09;3.15;;;1.30;;
38085;SDS011;23896;50.678;10.924;2023-04-24T04:39:36;1.90;;;1.40;;
38085;SDS011;23896;50.678;10.924;2023-04-24T04:42:02;1.60;;;1.08;;
38085;SDS011;23896;50.678;10.924;2023-04-24T04:47:32;1.27;;;1.17;;
38085;SDS011;23896;50.678;10.924;2023-04-24T04:49:59;2.15;;;1.08;;
38085;SDS011;23896;50.678;10.924;2023-04-24T04:52:25;1.60;;;1.10;;
38085;SDS011;23896;50.678;10.924;2023-04-24T04:54:51;1.48;;;1.10;;
38085;SDS011;23896;50.678;10.924;2023-04-24T05:00:24;3.55;;;1.00;;
38085;SDS011;23896;50.678;10.924;2023-04-24T05:02:50;1.25;;;1.10;;
38085;SDS011;23896;50.678;10.924;2023-04-24T05:05:17;2.13;;;1.00;;
38085;SDS011;23896;50.678;10.924;2023-04-24T05:10:50;1.30;;;1.17;;
38085;SDS011;23896;50.678;10.924;2023-04-24T05:13:16;0.95;;;0.88;;
38085;SDS011;23896;50.678;10.924;2023-04-24T05:15:46;1.25;;;0.95;;
38085;SDS011;23896;50.678;10.924;2023-04-24T05:18:12;1.90;;;1.00;;
38085;SDS011;23896;50.678;10.924;2023-04-24T05:20:38;1.77;;;1.10;;
38085;SDS011;23896;50.678;10.924;2023-04-24T05:23:06;1.50;;;1.00;;
38085;SDS011;23896;50.678;10.924;2023-04-24T05:25:32;1.95;;;1.48;;
38085;SDS011;23896;50.678;10.924;2023-04-24T05:28:00;1.08;;;1.05;;
38085;SDS011;23896;50.678;10.924;2023-04-24T05:30:31;1.10;;;1.00;;
38085;SDS011;23896;50.678;10.924;2023-04-24T05:32:57;1.45;;;1.35;;
38085;SDS011;23896;50.678;10.924;2023-04-24T05:35:23;1.80;;;1.02;;
38085;SDS011;23896;50.678;10.924;2023-04-24T05:37:49;1.95;;;1.02;;
38085;SDS011;23896;50.678;10.924;2023-04-24T05:40:22;2.80;;;1.50;;
38085;SDS011;23896;50.678;10.924;2023-04-24T05:42:48;1.80;;;1.30;;
38085;SDS011;23896;50.678;10.924;2023-04-24T05:45:17;2.15;;;1.35;;
38085;SDS011;23896;50.678;10.924;2023-04-24T05:47:43;2.90;;;1.05;;
38085;SDS011;23896;50.678;10.924;2023-04-24T05:50:10;3.92;;;1.08;;
38085;SDS011;23896;50.678;10.924;2023-04-24T05:52:36;1.52;;;1.10;;
38085;SDS011;23896;50.678;10.924;2023-04-24T05:55:02;1.50;;;0.93;;
38085;SDS011;23896;50.678;10.924;2023-04-24T05:57:29;2.20;;;1.02;;
38085;SDS011;23896;50.678;10.924;2023-04-24T05:59:55;2.00;;;1.17;;
38085;SDS011;23896;50.678;10.924;2023-04-24T06:02:21;2.67;;;1.27;;
38085;SDS011;23896;50.678;10.924;2023-04-24T06:07:34;1.27;;;0.93;;
38085;SDS011;23896;50.678;10.924;2023-04-24T06:10:00;1.85;;;1.00;;
38085;SDS011;23896;50.678;10.924;2023-04-24T06:12:28;1.17;;;1.08;;
38085;SDS011;23896;50.678;10.924;2023-04-24T06:14:54;1.20;;;0.93;;
38085;SDS011;23896;50.678;10.924;2023-04-24T06:17:23;0.82;;;0.60;;
38085;SDS011;23896;50.678;10.924;2023-04-24T06:19:52;1.30;;;0.90;;
38085;SDS011;23896;50.678;10.924;2023-04-24T06:22:18;1.73;;;0.90;;
38085;SDS011;23896;50.678;10.924;2023-04-24T06:24:44;1.42;;;1.10;;
38085;SDS011;23896;50.678;10.924;2023-04-24T06:27:12;3.38;;;1.13;;
38085;SDS011;23896;50.678;10.924;2023-04-24T06:29:38;1.73;;;1.10;;
38085;SDS011;23896;50.678;10.924;2023-04-24T06:32:05;2.35;;;1.10;;
38085;SDS011;23896;50.678;10.924;2023-04-24T06:34:31;0.93;;;0.90;;
38085;SDS011;23896;50.678;10.924;2023-04-24T06:36:59;0.95;;;0.90;;
38085;SDS011;23896;50.678;10.924;2023-04-24T06:39:31;1.58;;;1.17;;
38085;SDS011;23896;50.678;10.924;2023-04-24T06:41:58;1.58;;;0.90;;
38085;SDS011;23896;50.678;10.924;2023-04-24T06:44:27;1.10;;;1.10;;
38085;SDS011;23896;50.678;10.924;2023-04-24T06:46:53;3.05;;;1.02;;
38085;SDS011;23896;50.678;10.924;2023-04-24T06:49:19;1.27;;;1.08;;
38085;SDS011;23896;50.678;10.924;2023-04-24T06:54:48;3.07;;;1.40;;
38085;SDS011;23896;50.678;10.924;2023-04-24T06:57:17;1.15;;;1.08;;
38085;SDS011;23896;50.678;10.924;2023-04-24T06:59:45;1.30;;;0.90;;
38085;SDS011;23896;50.678;10.924;2023-04-24T07:02:13;1.45;;;1.00;;
38085;SDS011;23896;50.678;10.924;2023-04-24T07:04:39;2.60;;;1.20;;
38085;SDS011;23896;50.678;10.924;2023-04-24T07:07:06;1.08;;;0.93;;
38085;SDS011;23896;50.678;10.924;2023-04-24T07:09:34;2.75;;;1.00;;
38085;SDS011;23896;50.678;10.924;2023-04-24T07:18:11;3.20;;;0.90;;
38085;SDS011;23896;50.678;10.924;2023-04-24T07:20:39;1.40;;;1.30;;
38085;SDS011;23896;50.678;10.924;2023-04-24T07:23:05;1.10;;;1.00;;
38085;SDS011;23896;50.678;10.924;2023-04-24T07:25:32;1.30;;;1.20;;
38085;SDS011;23896;50.678;10.924;2023-04-24T07:27:59;1.63;;;1.13;;
38085;SDS011;23896;50.678;10.924;2023-04-24T07:30:25;1.38;;;0.88;;
38085;SDS011;23896;50.678;10.924;2023-04-24T07:32:53;1.05;;;0.82;;
38085;SDS011;23896;50.678;10.924;2023-04-24T07:35:20;2.20;;;0.95;;
38085;SDS011;23896;50.678;10.924;2023-04-24T07:37:47;1.02;;;1.02;;
38085;SDS011;23896;50.678;10.924;2023-04-24T07:40:16;3.15;;;1.17;;
38085;SDS011;23896;50.678;10.924;2023-04-24T07:45:50;1.03;;;1.00;;
38085;SDS011;23896;50.678;10.924;2023-04-24T07:48:16;1.33;;;0.80;;
38085;SDS011;23896;50.678;10.924;2023-04-24T07:50:43;1.92;;;0.90;;
38085;SDS011;23896;50.678;10.924;2023-04-24T07:53:19;2.38;;;0.80;;
38085;SDS011;23896;50.678;10.924;2023-04-24T07:55:45;1.50;;;1.40;;
38085;SDS011;23896;50.678;10.924;2023-04-24T07:58:11;1.50;;;1.17;;
38085;SDS011;23896;50.678;10.924;2023-04-24T08:00:45;1.20;;;1.10;;
38085;SDS011;23896;50.678;10.924;2023-04-24T08:03:12;1.40;;;1.30;;
38085;SDS011;23896;50.678;10.924;2023-04-24T08:05:54;2.42;;;1.20;;
38085;SDS011;23896;50.678;10.924;2023-04-24T08:08:30;1.05;;;1.00;;
38085;SDS011;23896;50.678;10.924;2023-04-24T08:10:57;1.25;;;1.10;;
38085;SDS011;23896;50.678;10.924;2023-04-24T08:13:29;1.08;;;1.08;;
38085;SDS011;23896;50.678;10.924;2023-04-24T08:15:59;1.40;;;1.25;;
38085;SDS011;23896;50.678;10.924;2023-04-24T08:18:37;3.25;;;1.13;;
38085;SDS011;23896;50.678;10.924;2023-04-24T08:21:04;1.98;;;1.20;;
38085;SDS011;23896;50.678;10.924;2023-04-24T08:23:30;1.08;;;0.93;;
38085;SDS011;23896;50.678;10.924;2023-04-24T08:25:58;1.38;;;1.27;;
38085;SDS011;23896;50.678;10.924;2023-04-24T08:31:14;1.30;;;1.30;;
38085;SDS011;23896;50.678;10.924;2023-04-24T08:33:41;2.63;;;1.63;;
38085;SDS011;23896;50.678;10.924;2023-04-24T08:36:10;1.50;;;1.20;;
38085;SDS011;23896;50.678;10.924;2023-04-24T08:38:46;1.73;;;1.40;;
38085;SDS011;23896;50.678;10.924;2023-04-24T08:41:12;1.95;;;1.73;;
38085;SDS011;23896;50.678;10.924;2023-04-24T08:43:42;1.75;;;1.33;;
38085;SDS011;23896;50.678;10.924;2023-04-24T08:52:17;1.10;;;1.10;;
38085;SDS011;23896;50.678;10.924;2023-04-24T08:54:48;3.85;;;1.30;;
38085;SDS011;23896;50.678;10.924;2023-04-24T08:57:14;1.20;;;1.10;;
38085;SDS011;23896;50.678;10.924;2023-04-24T08:59:41;1.60;;;1.48;;
38085;SDS011;23896;50.678;10.924;2023-04-24T09:02:09;1.30;;;1.20;;
38085;SDS011;23896;50.678;10.924;2023-04-24T09:04:36;1.40;;;1.30;;
38085;SDS011;23896;50.678;10.924;2023-04-24T09:16:19;3.22;;;1.33;;
38085;SDS011;23896;50.678;10.924;2023-04-24T09:18:51;1.17;;;1.13;;
38085;SDS011;23896;50.678;10.924;2023-04-24T09:21:19;3.00;;;1.10;;
38085;SDS011;23896;50.678;10.924;2023-04-24T10:01:41;2.80;;;1.00;;
38085;SDS011;23896;50.678;10.924;2023-04-24T10:04:17;1.23;;;1.13;;
38085;SDS011;23896;50.678;10.924;2023-04-24T10:06:44;1.00;;;1.00;;
38085;SDS011;23896;50.678;10.924;2023-04-24T10:09:10;1.33;;;1.23;;
38085;SDS011;23896;50.678;10.924;2023-04-24T10:11:48;2.60;;;1.13;;
38085;SDS011;23896;50.678;10.924;2023-04-24T10:14:16;1.00;;;1.00;;
38085;SDS011;23896;50.678;10.924;2023-04-24T10:16:43;1.50;;;1.40;;
38085;SDS011;23896;50.678;10.924;2023-04-24T10:22:15;1.23;;;1.13;;
38085;SDS011;23896;50.678;10.924;2023-04-24T10:24:43;3.25;;;1.40;;
38085;SDS011;23896;50.678;10.924;2023-04-24T10:27:10;1.25;;;1.20;;
38085;SDS011;23896;50.678;10.924;2023-04-24T10:29:39;1.20;;;1.20;;
38085;SDS011;23896;50.678;10.924;2023-04-24T10:32:06;2.45;;;1.20;;
38085;SDS011;23896;50.678;10.924;2023-04-24T10:40:45;1.50;;;1.30;;
38085;SDS011;23896;50.678;10.924;2023-04-24T10:43:13;0.88;;;0.85;;
38085;SDS011;23896;50.678;10.924;2023-04-24T10:46:01;1.08;;;1.02;;
38085;SDS011;23896;50.678;10.924;2023-04-24T10:48:33;1.30;;;1.20;;
38085;SDS011;23896;50.678;10.924;2023-04-24T10:51:01;1.98;;;1.08;;
38085;SDS011;23896;50.678;10.924;2023-04-24T10:53:29;2.53;;;1.20;;
38085;SDS011;23896;50.678;10.924;2023-04-24T10:55:58;2.47;;;1.20;;
38085;SDS011;23896;50.678;10.924;2023-04-24T10:58:36;1.90;;;0.90;;
38085;SDS011;23896;50.678;10.924;2023-04-24T11:01:26;1.45;;;1.05;;
38085;SDS011;23896;50.678;10.924;2023-04-24T11:06:54;1.30;;;1.20;;
38085;SDS011;23896;50.678;10.924;2023-04-24T11:09:21;1.40;;;1.15;;
38085;SDS011;23896;50.678;10.924;2023-04-24T11:12:03;1.00;;;1.00;;
38085;SDS011;23896;50.678;10.924;2023-04-24T11:17:31;0.90;;;0.90;;
38085;SDS011;23896;50.678;10.924;2023-04-24T11:20:03;1.48;;;1.38;;
38085;SDS011;23896;50.678;10.924;2023-04-24T11:22:32;1.00;;;1.00;;
38085;SDS011;23896;50.678;10.924;2023-04-24T11:25:03;1.10;;;1.02;;
38085;SDS011;23896;50.678;10.924;2023-04-24T11:27:30;1.55;;;1.23;;
38085;SDS011;23896;50.678;10.924;2023-04-24T11:30:00;3.33;;;1.40;;
38085;SDS011;23896;50.678;10.924;2023-04-24T11:32:33;1.83;;;1.73;;
38085;SDS011;23896;50.678;10.924;2023-04-24T11:35:02;1.25;;;1.15;;
38085;SDS011;23896;50.678;10.924;2023-04-24T11:37:33;1.65;;;1.45;;
38085;SDS011;23896;50.678;10.924;2023-04-24T11:40:00;1.42;;;1.33;;
38085;SDS011;23896;50.678;10.924;2023-04-24T11:42:27;1.45;;;1.20;;
38085;SDS011;23896;50.678;10.924;2023-04-24T11:44:55;2.08;;;1.20;;
38085;SDS011;23896;50.678;10.924;2023-04-24T11:47:27;1.40;;;1.30;;
38085;SDS011;23896;50.678;10.924;2023-04-24T11:49:55;1.67;;;1.58;;
38085;SDS011;23896;50.678;10.924;2023-04-24T11:52:22;3.50;;;1.30;;
38085;SDS011;23896;50.678;10.924;2023-04-24T11:54:49;1.48;;;1.38;;
38085;SDS011;23896;50.678;10.924;2023-04-24T11:57:15;2.10;;;1.42;;
38085;SDS011;23896;50.678;10.924;2023-04-24T11:59:48;2.75;;;1.90;;
38085;SDS011;23896;50.678;10.924;2023-04-24T12:02:24;1.90;;;1.70;;
38085;SDS011;23896;50.678;10.924;2023-04-24T12:04:53;2.03;;;1.80;;
38085;SDS011;23896;50.678;10.924;2023-04-24T12:07:24;2.05;;;1.90;;
38085;SDS011;23896;50.678;10.924;2023-04-24T12:10:21;1.60;;;1.50;;
38085;SDS011;23896;50.678;10.924;2023-04-24T12:12:51;1.50;;;1.40;;
38085;SDS011;23896;50.678;10.924;2023-04-24T12:15:18;1.85;;;1.75;;
38085;SDS011;23896;50.678;10.924;2023-04-24T12:17:47;1.50;;;1.40;;
38085;SDS011;23896;50.678;10.924;2023-04-24T12:20:14;1.92;;;1.42;;
38085;SDS011;23896;50.678;10.924;2023-04-24T12:22:43;1.45;;;1.35;;
38085;SDS011;23896;50.678;10.924;2023-04-24T12:25:12;1.60;;;1.50;;
38085;SDS011;23896;50.678;10.924;2023-04-24T12:27:39;1.42;;;1.30;;
38085;SDS011;23896;50.678;10.924;2023-04-24T12:30:09;1.80;;;1.70;;
38085;SDS011;23896;50.678;10.924;2023-04-24T12:32:42;1.60;;;1.50;;
38085;SDS011;23896;50.678;10.924;2023-04-24T12:35:08;1.85;;;1.75;;
38085;SDS011;23896;50.678;10.924;2023-04-24T12:37:34;1.95;;;1.83;;
38085;SDS011;23896;50.678;10.924;2023-04-24T12:42:28;2.05;;;1.80;;
38085;SDS011;23896;50.678;10.924;2023-04-24T12:44:56;1.85;;;1.60;;
38085;SDS011;23896;50.678;10.924;2023-04-24T12:47:34;2.33;;;1.40;;
38085;SDS011;23896;50.678;10.924;2023-04-24T12:50:02;1.88;;;1.52;;
38085;SDS011;23896;50.678;10.924;2023-04-24T12:52:29;1.67;;;1.58;;
38085;SDS011;23896;50.678;10.924;2023-04-24T12:54:57;1.48;;;1.38;;
38085;SDS011;23896;50.678;10.924;2023-04-24T12:57:27;1.63;;;1.50;;
38085;SDS011;23896;50.678;10.924;2023-04-24T12:59:54;1.80;;;1.20;;
38085;SDS011;23896;50.678;10.924;2023-04-24T13:02:24;1.90;;;1.67;;
38085;SDS011;23896;50.678;10.924;2023-04-24T13:04:51;1.50;;;1.40;;
38085;SDS011;23896;50.678;10.924;2023-04-24T13:07:18;1.40;;;1.30;;
38085;SDS011;23896;50.678;10.924;2023-04-24T13:09:44;1.48;;;1.38;;
38085;SDS011;23896;50.678;10.924;2023-04-24T13:12:11;1.23;;;1.23;;
38085;SDS011;23896;50.678;10.924;2023-04-24T13:14:38;3.22;;;1.10;;
38085;SDS011;23896;50.678;10.924;2023-04-24T13:17:04;1.30;;;1.30;;
38085;SDS011;23896;50.678;10.924;2023-04-24T13:19:35;2.33;;;1.30;;
38085;SDS011;23896;50.678;10.924;2023-04-24T13:22:11;1.10;;;1.10;;
38085;SDS011;23896;50.678;10.924;2023-04-24T13:24:38;1.40;;;1.30;;
38085;SDS011;23896;50.678;10.924;2023-04-24T13:27:05;1.42;;;1.33;;
38085;SDS011;23896;50.678;10.924;2023-04-24T13:29:33;1.40;;;1.30;;
38085;SDS011;23896;50.678;10.924;2023-04-24T13:31:59;1.35;;;1.23;;
38085;SDS011;23896;50.678;10.924;2023-04-24T13:34:26;1.45;;;1.35;;
38085;SDS011;23896;50.678;10.924;2023-04-24T13:36:53;1.10;;;1.10;;
38085;SDS011;23896;50.678;10.924;2023-04-24T13:39:20;1.40;;;1.30;;
38085;SDS011;23896;50.678;10.924;2023-04-24T13:41:46;1.40;;;1.30;;
38085;SDS011;23896;50.678;10.924;2023-04-24T13:44:13;1.50;;;1.40;;
38085;SDS011;23896;50.678;10.924;2023-04-24T13:46:50;1.40;;;1.30;;
38085;SDS011;23896;50.678;10.924;2023-04-24T13:49:28;1.60;;;1.50;;
38085;SDS011;23896;50.678;10.924;2023-04-24T13:52:15;1.00;;;1.00;;
38085;SDS011;23896;50.678;10.924;2023-04-24T13:54:41;1.10;;;1.00;;
38085;SDS011;23896;50.678;10.924;2023-04-24T13:57:13;1.13;;;1.00;;
38085;SDS011;23896;50.678;10.924;2023-04-24T13:59:47;1.27;;;1.17;;
38085;SDS011;23896;50.678;10.924;2023-04-24T14:02:17;1.33;;;1.23;;
38085;SDS011;23896;50.678;10.924;2023-04-24T14:13:52;1.02;;;0.93;;
38085;SDS011;23896;50.678;10.924;2023-04-24T14:16:21;1.00;;;1.00;;
38085;SDS011;23896;50.678;10.924;2023-04-24T14:18:49;1.02;;;1.02;;
38085;SDS011;23896;50.678;10.924;2023-04-24T14:21:34;1.13;;;1.02;;
38085;SDS011;23896;50.678;10.924;2023-04-24T14:24:08;0.85;;;0.85;;
38085;SDS011;23896;50.678;10.924;2023-04-24T14:26:36;0.80;;;0.80;;
38085;SDS011;23896;50.678;10.924;2023-04-24T14:29:10;0.70;;;0.70;;
38085;SDS011;23896;50.678;10.924;2023-04-24T14:31:47;1.10;;;0.90;;
38085;SDS011;23896;50.678;10.924;2023-04-24T14:34:23;0.70;;;0.70;;
38085;SDS011;23896;50.678;10.924;2023-04-24T14:37:07;0.70;;;0.70;;
38085;SDS011;23896;50.678;10.924;2023-04-24T14:39:47;0.90;;;0.90;;
38085;SDS011;23896;50.678;10.924;2023-04-24T14:42:22;0.80;;;0.80;;
38085;SDS011;23896;50.678;10.924;2023-04-24T14:48:09;0.90;;;0.90;;
38085;SDS011;23896;50.678;10.924;2023-04-24T14:50:42;1.02;;;1.02;;
38085;SDS011;23896;50.678;10.924;2023-04-24T14:53:31;1.00;;;1.00;;
38085;SDS011;23896;50.678;10.924;2023-04-24T14:56:41;1.13;;;0.93;;
38085;SDS011;23896;50.678;10.924;2023-04-24T14:59:34;0.70;;;0.70;;
38085;SDS011;23896;50.678;10.924;2023-04-24T15:02:01;0.60;;;0.60;;
38085;SDS011;23896;50.678;10.924;2023-04-24T15:04:29;0.80;;;0.80;;
38085;SDS011;23896;50.678;10.924;2023-04-24T15:07:10;1.55;;;0.70;;
38085;SDS011;23896;50.678;10.924;2023-04-24T15:09:42;0.60;;;0.60;;
38085;SDS011;23896;50.678;10.924;2023-04-24T15:12:09;0.70;;;0.70;;
38085;SDS011;23896;50.678;10.924;2023-04-24T15:14:38;0.73;;;0.65;;
38085;SDS011;23896;50.678;10.924;2023-04-24T15:17:08;0.70;;;0.70;;
38085;SDS011;23896;50.678;10.924;2023-04-24T15:19:34;0.68;;;0.68;;
38085;SDS011;23896;50.678;10.924;2023-04-24T15:22:02;0.85;;;0.80;;
38085;SDS011;23896;50.678;10.924;2023-04-24T15:24:28;0.63;;;0.63;;
38085;SDS011;23896;50.678;10.924;2023-04-24T15:26:54;0.70;;;0.70;;
38085;SDS011;23896;50.678;10.924;2023-04-24T15:29:27;0.80;;;0.80;;
38085;SDS011;23896;50.678;10.924;2023-04-24T15:31:53;0.70;;;0.70;;
38085;SDS011;23896;50.678;10.924;2023-04-24T15:34:19;0.93;;;0.93;;
38085;SDS011;23896;50.678;10.924;2023-04-24T15:36:47;0.82;;;0.80;;
38085;SDS011;23896;50.678;10.924;2023-04-24T15:39:13;0.80;;;0.80;;
38085;SDS011;23896;50.678;10.924;2023-04-24T15:41:39;0.80;;;0.80;;
38085;SDS011;23896;50.678;10.924;2023-04-24T15:44:05;0.85;;;0.82;;
38085;SDS011;23896;50.678;10.924;2023-04-24T15:46:32;1.20;;;1.10;;
38085;SDS011;23896;50.678;10.924;2023-04-24T15:49:00;1.08;;;1.05;;
38085;SDS011;23896;50.678;10.924;2023-04-24T15:51:27;1.23;;;1.13;;
38085;SDS011;23896;50.678;10.924;2023-04-24T15:54:19;1.30;;;1.20;;
38085;SDS011;23896;50.678;10.924;2023-04-24T15:56:49;2.92;;;1.25;;
38085;SDS011;23896;50.678;10.924;2023-04-24T15:59:16;1.08;;;1.08;;
38085;SDS011;23896;50.678;10.924;2023-04-24T16:01:44;1.10;;;1.10;;
38085;SDS011;23896;50.678;10.924;2023-04-24T16:04:13;1.30;;;1.20;;
38085;SDS011;23896;50.678;10.924;2023-04-24T16:06:40;1.50;;;1.40;;
38085;SDS011;23896;50.678;10.924;2023-04-24T16:09:11;0.80;;;0.80;;
38085;SDS011;23896;50.678;10.924;2023-04-24T16:26:51;2.47;;;1.40;;
38085;SDS011;23896;50.678;10.924;2023-04-24T16:29:20;1.38;;;1.10;;
38085;SDS011;23896;50.678;10.924;2023-04-24T16:31:49;1.75;;;1.65;;
38085;SDS011;23896;50.678;10.924;2023-04-24T16:34:15;1.67;;;1.58;;
38085;SDS011;23896;50.678;10.924;2023-04-24T16:36:42;2.55;;;1.30;;
38085;SDS011;23896;50.678;10.924;2023-04-24T16:39:23;1.02;;;1.00;;
38085;SDS011;23896;50.678;10.924;2023-04-24T16:41:55;2.88;;;1.20;;
38085;SDS011;23896;50.678;10.924;2023-04-24T16:44:23;1.15;;;1.13;;
38085;SDS011;23896;50.678;10.924;2023-04-24T16:46:59;1.45;;;1.35;;
38085;SDS011;23896;50.678;10.924;2023-04-24T16:49:26;1.75;;;1.65;;
38085;SDS011;23896;50.678;10.924;2023-04-24T16:51:56;1.85;;;1.48;;
38085;SDS011;23896;50.678;10.924;2023-04-24T16:57:36;1.67;;;1.58;;
38085;SDS011;23896;50.678;10.924;2023-04-24T17:00:11;2.00;;;1.80;;
38085;SDS011;23896;50.678;10.924;2023-04-24T17:02:38;2.53;;;1.58;;
38085;SDS011;23896;50.678;10.924;2023-04-24T17:08:10;3.50;;;3.00;;
38085;SDS011;23896;50.678;10.924;2023-04-24T17:10:38;1.70;;;1.52;;
38085;SDS011;23896;50.678;10.924;2023-04-24T17:19:13;1.58;;;1.48;;